Aviation Digital Data Service (ADDS)

Output produced by METARs form (1251 UTC 19 October 2017)
found at http://www.aviationweather.gov/adds/metars/
 
KFIG 191212Z AUTO 15003KT 1/4SM FG VV001 03/03 A3021 RMK AO2 T00280028
KFIG 191206Z AUTO 00000KT 1SM BR VV001 03/03 A3022 RMK AO2 T00330033
KFIG 191158Z AUTO 19003KT 2SM BR BKN001 03/03 A3022 RMK AO2 T00330033
KFIG 191154Z AUTO 22003KT 3/4SM BR VV001 03/03 A3022 RMK AO2 SLP241 T00330033 10061 20028 52001
KFIG 191149Z AUTO 22003KT 1/2SM FG VV001 03/03 A3022 RMK AO2
KFIG 191135Z AUTO 00000KT 1/4SM FG VV001 03/03 A3022 RMK AO2 T00280028
KFIG 191113Z AUTO 24004KT 3/4SM BR VV001 03/03 A3022 RMK AO2 T00330033
KFIG 191054Z AUTO 22003KT M1/4SM FG VV001 03/03 A3022 RMK AO2 SLP238 T00330033
KFIG 191051Z AUTO 23004KT M1/4SM FG VV001 03/03 A3022 RMK AO2
KFIG 191043Z AUTO 23004KT 1/2SM FG VV002 03/03 A3022 RMK AO2 T00280028
KFIG 191033Z AUTO 20003KT 1 1/2SM BR BKN002 03/03 A3022 RMK AO2 VIS 3/4V5 T00280028
KFIG 191030Z AUTO 20003KT 3SM BR BKN002 03/03 A3022 RMK AO2 T00280028
KFIG 191018Z AUTO 00000KT 3SM BR SCT002 03/03 A3022 RMK AO2 T00330033
KFIG 191007Z AUTO 00000KT 1 1/2SM BR SCT002 03/03 A3022 RMK AO2 T00330028
KFIG 190954Z AUTO 00000KT 3SM BR SCT002 03/03 A3022 RMK AO2 SLP236 T00330033
KFIG 190854Z AUTO 00000KT 10SM CLR 04/04 A3022 RMK AO2 SLP234 T00440039 57003
KFIG 190754Z AUTO 00000KT 10SM CLR 05/04 A3022 RMK AO2 SLP234 T00500039
KFIG 190654Z AUTO 00000KT 10SM CLR 06/04 A3023 RMK AO2 SLP237 T00610044
KFIG 190554Z AUTO 35005KT 10SM CLR 06/04 A3023 RMK AO2 SLP238 T00560044 10144 20056 56008
KFIG 190454Z AUTO 36004KT 10SM CLR 06/05 A3023 RMK AO2 SLP240 T00610050 402170017
KFIG 190354Z AUTO 36003KT 10SM CLR 07/05 A3024 RMK AO2 SLP244 T00670050
KFIG 190254Z AUTO 35006KT 10SM CLR 08/05 A3026 RMK AO2 SLP250 T00830050 58001
KFIG 190154Z AUTO 01003KT 10SM CLR 09/06 A3026 RMK AO2 SLP253 T00940056
KFIG 190054Z AUTO 23003KT 10SM CLR 13/05 A3026 RMK AO2 SLP252 T01330050
KFIG 182354Z AUTO 00000KT 10SM CLR 13/05 A3026 RMK AO2 SLP254 T01280050 10217 20128 53005
KFIG 182254Z AUTO VRB03KT 10SM CLR 17/05 A3026 RMK AO2 SLP250 T01670050
KFIG 182154Z AUTO 19005KT 10SM CLR 20/05 A3024 RMK AO2 SLP242 T02000050
KFIG 182054Z AUTO 18004KT 10SM CLR 22/03 A3024 RMK AO2 SLP242 T02170033 56021
KFIG 181954Z AUTO 24008KT 10SM CLR 22/03 A3026 RMK AO2 SLP249 T02170033
KFIG 181854Z AUTO 21007KT 180V240 10SM CLR 21/04 A3028 RMK AO2 SLP255 T02060039
KFIG 181754Z AUTO VRB03KT 10SM CLR 19/04 A3031 RMK AO2 SLP264 T01940044 10194 20022 58019
KFIG 181654Z AUTO 21007KT 10SM CLR 18/03 A3034 RMK AO2 SLP276 T01780033
KFIG 181554Z AUTO VRB05KT 10SM CLR 16/06 A3036 RMK AO2 SLP286 T01610056
KFIG 181454Z AUTO 20005KT 10SM CLR 12/06 A3036 RMK AO2 SLP288 T01170056 50003
KFIG 181354Z AUTO 24004KT 10SM CLR 08/06 A3037 RMK AO2 SLP290 T00830056
KFIG 181254Z AUTO 21003KT 6SM BR CLR 04/04 A3037 RMK AO2 SLP292 T00440039
KFIG 181154Z AUTO 22005KT 5SM BR CLR 02/02 A3035 RMK AO2 SLP288 T00220017 10056 20017 51015
KFIG 181054Z AUTO 00000KT 10SM CLR 03/02 A3034 RMK AO2 SLP282 T00280022
KFIG 180954Z AUTO 00000KT 10SM CLR 04/03 A3033 RMK AO2 SLP275 T00390033
KFIG 180854Z AUTO 00000KT 10SM CLR 04/03 A3031 RMK AO2 SLP268 T00390033 53002
KFIG 180754Z AUTO 00000KT 10SM CLR 03/03 A3030 RMK AO2 SLP266 T00330033
KFIG 180654Z AUTO 00000KT 10SM CLR 04/03 A3031 RMK AO2 SLP267 T00440033
KFIG 180554Z AUTO 22003KT 10SM CLR 06/04 A3030 RMK AO2 SLP266 T00560044 10111 20044 51006
KFIG 180454Z AUTO 24003KT 10SM CLR 06/04 A3030 RMK AO2 SLP267 T00560044 401611017
KFIG 180354Z AUTO 21003KT 10SM CLR 06/04 A3029 RMK AO2 SLP264 T00610044
KFIG 180254Z AUTO 21003KT 10SM CLR 06/04 A3029 RMK AO2 SLP264 T00610039 53011
KFIG 180154Z AUTO 23003KT 10SM CLR 09/04 A3027 RMK AO2 SLP261 T00890039
KFIG 180054Z AUTO 23003KT 10SM CLR 09/03 A3026 RMK AO2 SLP257 T00890033